createdAt,value
2017-09-13T00:01:38.619Z,1.33
2017-09-13T00:04:05.050Z,1.80
2017-09-13T00:06:32.239Z,1.43
2017-09-13T00:08:58.552Z,1.40
2017-09-13T00:11:25.682Z,1.70
2017-09-13T00:13:52.877Z,1.50
2017-09-13T00:16:19.295Z,1.30
2017-09-13T00:18:46.319Z,1.73
2017-09-13T00:21:13.488Z,1.70
2017-09-13T00:23:39.806Z,1.67
2017-09-13T00:26:06.907Z,1.90
2017-09-13T00:28:33.230Z,2.20
2017-09-13T00:30:59.634Z,1.70
2017-09-13T00:33:26.040Z,1.93
2017-09-13T00:35:52.428Z,1.40
2017-09-13T00:38:18.753Z,2.00
2017-09-13T00:40:45.158Z,2.33
2017-09-13T00:43:11.537Z,1.50
2017-09-13T00:45:37.938Z,1.40
2017-09-13T00:48:04.289Z,3.13
2017-09-13T00:50:30.655Z,1.73
2017-09-13T00:52:57.109Z,1.77
2017-09-13T00:55:24.324Z,1.73
2017-09-13T00:57:50.768Z,1.73
2017-09-13T01:00:17.032Z,1.93
2017-09-13T01:02:44.296Z,1.97
2017-09-13T01:05:10.682Z,1.57
2017-09-13T01:07:37.039Z,1.53
2017-09-13T01:10:03.388Z,1.70
2017-09-13T01:12:30.492Z,1.77
2017-09-13T01:14:56.866Z,1.60
2017-09-13T01:17:23.330Z,1.80
2017-09-13T01:19:49.709Z,1.80
2017-09-13T01:22:15.994Z,1.50
2017-09-13T01:24:42.530Z,2.10
2017-09-13T01:27:08.826Z,1.93
2017-09-13T01:29:36.057Z,2.07
2017-09-13T01:32:02.450Z,2.20
2017-09-13T01:34:29.562Z,1.93
2017-09-13T01:36:56.013Z,1.77
2017-09-13T01:39:22.406Z,2.30
2017-09-13T01:41:48.708Z,2.10
2017-09-13T01:44:15.159Z,2.10
2017-09-13T01:46:41.680Z,2.10
2017-09-13T01:49:08.079Z,2.10
2017-09-13T01:51:34.542Z,2.43
2017-09-13T01:54:00.880Z,2.03
2017-09-13T01:56:27.319Z,2.33
2017-09-13T01:58:53.579Z,2.47
2017-09-13T02:01:19.909Z,2.40
2017-09-13T02:03:46.394Z,2.47
2017-09-13T02:06:12.688Z,3.00
2017-09-13T02:08:39.091Z,1.93
2017-09-13T02:11:05.426Z,2.20
2017-09-13T02:13:31.815Z,2.17
2017-09-13T02:15:58.260Z,2.10
2017-09-13T02:18:25.716Z,2.20
2017-09-13T02:20:52.049Z,2.10
2017-09-13T02:23:18.512Z,2.10
2017-09-13T02:25:44.868Z,1.63
2017-09-13T02:28:11.324Z,2.00
2017-09-13T02:30:37.798Z,1.73
2017-09-13T02:33:04.238Z,1.73
2017-09-13T02:35:30.750Z,2.53
2017-09-13T02:37:57.172Z,1.70
2017-09-13T02:40:23.596Z,1.77
2017-09-13T02:42:50.004Z,2.10
2017-09-13T02:45:16.329Z,1.60
2017-09-13T02:47:42.849Z,1.80
2017-09-13T02:50:09.273Z,2.10
2017-09-13T02:52:35.687Z,1.77
2017-09-13T02:55:02.016Z,1.63
2017-09-13T02:57:28.427Z,2.40
2017-09-13T02:59:54.834Z,1.80
2017-09-13T03:02:21.233Z,2.13
2017-09-13T03:04:47.670Z,1.87
2017-09-13T03:07:14.129Z,1.97
2017-09-13T03:09:41.379Z,2.27
2017-09-13T03:12:07.768Z,1.93
2017-09-13T03:14:34.354Z,1.83
2017-09-13T03:17:01.526Z,2.13
2017-09-13T03:19:28.440Z,2.07
2017-09-13T03:21:54.850Z,1.93
2017-09-13T03:24:22.197Z,1.90
2017-09-13T03:26:48.623Z,2.07
2017-09-13T03:29:15.132Z,1.60
2017-09-13T03:31:41.529Z,1.60
2017-09-13T03:34:07.955Z,1.97
2017-09-13T03:36:34.336Z,2.20
2017-09-13T03:39:00.864Z,1.97
2017-09-13T03:41:27.329Z,2.30
2017-09-13T03:43:53.710Z,1.73
2017-09-13T03:46:20.133Z,2.20
2017-09-13T03:48:46.530Z,2.20
2017-09-13T03:51:13.037Z,1.40
2017-09-13T03:53:40.214Z,1.73
2017-09-13T03:56:06.738Z,1.80
2017-09-13T03:58:33.094Z,2.27
2017-09-13T04:00:59.509Z,1.60
2017-09-13T04:03:25.848Z,2.03
2017-09-13T04:05:52.193Z,2.10
2017-09-13T04:08:18.648Z,2.00
2017-09-13T04:10:44.959Z,1.47
2017-09-13T04:13:11.329Z,1.70
2017-09-13T04:15:37.636Z,1.80
2017-09-13T04:18:04.147Z,1.83
2017-09-13T04:20:30.490Z,1.77
2017-09-13T04:22:56.917Z,1.57
2017-09-13T04:25:23.383Z,2.20
2017-09-13T04:27:50.370Z,1.20
2017-09-13T04:30:17.404Z,1.53
2017-09-13T04:32:43.753Z,1.50
2017-09-13T04:35:10.834Z,1.30
2017-09-13T04:37:37.923Z,1.33
2017-09-13T04:40:04.269Z,1.23
2017-09-13T04:42:31.381Z,1.43
2017-09-13T04:44:57.755Z,1.40
2017-09-13T04:47:24.839Z,1.70
2017-09-13T04:49:51.232Z,1.70
2017-09-13T04:52:17.682Z,1.60
2017-09-13T04:54:44.250Z,1.27
2017-09-13T04:57:10.706Z,1.17
2017-09-13T04:59:37.081Z,0.70
2017-09-13T05:02:03.565Z,1.40
2017-09-13T05:04:29.995Z,1.43
2017-09-13T05:06:56.377Z,1.10
2017-09-13T05:09:22.740Z,1.00
2017-09-13T05:11:49.139Z,1.00
2017-09-13T05:14:15.718Z,1.40
2017-09-13T05:16:42.233Z,1.60
2017-09-13T05:19:08.612Z,1.90
2017-09-13T05:21:34.968Z,1.30
2017-09-13T05:24:01.306Z,1.10
2017-09-13T05:26:27.746Z,1.07
2017-09-13T05:28:54.401Z,1.27
2017-09-13T05:31:22.929Z,1.47
2017-09-13T05:33:49.299Z,1.63
2017-09-13T05:36:15.829Z,1.20
2017-09-13T05:38:42.130Z,1.80
2017-09-13T05:41:08.592Z,1.40
2017-09-13T05:43:34.937Z,1.30
2017-09-13T05:46:01.381Z,1.33
2017-09-13T05:48:27.825Z,1.40
2017-09-13T05:50:54.462Z,1.50
2017-09-13T05:53:20.848Z,1.10
2017-09-13T05:55:47.385Z,1.43
2017-09-13T05:58:13.796Z,1.90
2017-09-13T06:00:40.220Z,1.70
2017-09-13T06:03:06.724Z,1.53
2017-09-13T06:05:33.148Z,1.40
2017-09-13T06:07:59.554Z,1.70
2017-09-13T06:10:26.780Z,1.40
2017-09-13T06:12:53.180Z,2.07
2017-09-13T06:15:19.647Z,1.90
2017-09-13T06:17:46.177Z,1.60
2017-09-13T06:20:12.498Z,1.83
2017-09-13T06:22:38.932Z,1.07
2017-09-13T06:25:05.412Z,1.30
2017-09-13T06:27:31.829Z,1.40
2017-09-13T06:29:58.156Z,1.33
2017-09-13T06:32:24.592Z,1.43
2017-09-13T06:34:51.124Z,1.60
2017-09-13T06:37:17.758Z,1.53
2017-09-13T06:39:44.151Z,1.60
2017-09-13T06:42:10.442Z,1.37
2017-09-13T06:44:36.883Z,1.30
2017-09-13T06:47:03.247Z,1.27
2017-09-13T06:49:29.805Z,1.30
2017-09-13T06:51:56.182Z,1.67
2017-09-13T06:54:22.602Z,1.23
2017-09-13T06:56:49.037Z,1.20
2017-09-13T06:59:15.456Z,1.10
2017-09-13T07:01:41.896Z,0.90
2017-09-13T07:04:08.370Z,1.27
2017-09-13T07:06:34.752Z,1.23
2017-09-13T07:09:01.948Z,0.93
2017-09-13T07:11:28.311Z,0.93
2017-09-13T07:13:54.646Z,1.00
2017-09-13T07:16:21.236Z,1.00
2017-09-13T07:18:47.745Z,1.13
2017-09-13T07:21:14.104Z,1.27
2017-09-13T07:23:40.533Z,1.03
2017-09-13T07:26:06.942Z,1.00
2017-09-13T07:28:33.327Z,0.90
2017-09-13T07:30:59.742Z,1.30
2017-09-13T07:33:26.105Z,0.93
2017-09-13T07:35:53.286Z,1.03
2017-09-13T07:38:19.830Z,0.90
2017-09-13T07:40:46.140Z,1.00
2017-09-13T07:43:12.529Z,0.83
2017-09-13T07:45:38.854Z,0.80
2017-09-13T07:48:06.112Z,0.63
2017-09-13T07:50:33.282Z,0.50
2017-09-13T07:52:59.679Z,0.57
2017-09-13T07:55:26.923Z,0.60
2017-09-13T07:57:53.448Z,0.50
2017-09-13T08:00:19.896Z,0.60
2017-09-13T08:02:46.339Z,0.30
2017-09-13T08:05:12.727Z,0.40
2017-09-13T08:07:39.319Z,0.70
2017-09-13T08:10:06.425Z,0.40
2017-09-13T08:12:32.802Z,0.40
2017-09-13T08:14:59.415Z,0.60
2017-09-13T08:17:25.798Z,0.60
2017-09-13T08:19:52.127Z,0.53
2017-09-13T08:22:18.551Z,0.60
2017-09-13T08:24:45.034Z,0.60
2017-09-13T08:27:11.560Z,0.40
2017-09-13T08:29:38.200Z,0.60
2017-09-13T08:32:04.654Z,0.33
2017-09-13T08:34:31.468Z,0.60
2017-09-13T08:36:58.095Z,0.43
2017-09-13T08:39:24.443Z,0.40
2017-09-13T08:41:50.804Z,0.50
2017-09-13T08:44:17.151Z,0.40
2017-09-13T08:46:43.562Z,0.30
2017-09-13T08:49:09.858Z,0.37
2017-09-13T08:51:36.308Z,0.30
2017-09-13T08:54:02.702Z,0.47
2017-09-13T08:56:29.049Z,0.40
2017-09-13T08:58:55.618Z,0.30
2017-09-13T09:01:22.078Z,0.40
2017-09-13T09:03:48.546Z,0.40
2017-09-13T09:06:15.164Z,0.30
2017-09-13T09:08:41.592Z,0.30
2017-09-13T09:11:08.043Z,0.40
2017-09-13T09:13:34.453Z,0.50
2017-09-13T09:16:00.901Z,0.70
2017-09-13T09:18:28.020Z,0.63
2017-09-13T09:20:54.394Z,0.33
2017-09-13T09:23:21.062Z,0.43
2017-09-13T09:25:47.485Z,0.40
2017-09-13T09:28:13.878Z,0.40
2017-09-13T09:30:40.329Z,0.20
2017-09-13T09:33:06.755Z,0.30
2017-09-13T09:35:34.031Z,0.30
2017-09-13T09:38:00.455Z,0.30
2017-09-13T09:40:27.829Z,0.50
2017-09-13T09:42:54.344Z,0.40
2017-09-13T09:45:21.010Z,0.50
2017-09-13T09:47:47.534Z,0.40
2017-09-13T09:50:14.011Z,0.47
2017-09-13T09:52:40.443Z,0.50
2017-09-13T09:55:06.822Z,0.30
2017-09-13T09:57:34.896Z,0.33
2017-09-13T10:00:01.410Z,0.50
2017-09-13T10:02:28.818Z,0.37
2017-09-13T10:04:56.025Z,0.30
2017-09-13T10:07:23.347Z,0.53
2017-09-13T10:09:49.744Z,0.43
2017-09-13T10:12:16.378Z,0.40
2017-09-13T10:14:42.763Z,0.60
2017-09-13T10:17:09.221Z,0.50
2017-09-13T10:19:35.598Z,0.50
2017-09-13T10:22:01.956Z,0.30
2017-09-13T10:24:28.293Z,0.40
2017-09-13T10:26:54.758Z,0.40
2017-09-13T10:29:21.167Z,0.30
2017-09-13T10:31:48.434Z,0.20
2017-09-13T10:34:14.974Z,0.20
2017-09-13T10:36:41.398Z,0.20
2017-09-13T10:39:07.843Z,0.20
2017-09-13T10:41:34.921Z,0.20
2017-09-13T10:44:01.438Z,0.23
2017-09-13T10:46:29.091Z,0.20
2017-09-13T10:48:56.185Z,0.20
2017-09-13T10:51:22.632Z,0.20
2017-09-13T10:53:49.096Z,0.20
2017-09-13T10:56:15.613Z,0.20
2017-09-13T10:58:42.025Z,0.20
2017-09-13T11:01:08.462Z,0.20
2017-09-13T11:03:34.897Z,0.20
2017-09-13T11:06:01.252Z,0.20
2017-09-13T11:08:27.693Z,0.20
2017-09-13T11:10:53.985Z,0.30
2017-09-13T11:13:20.440Z,0.20
2017-09-13T11:15:46.890Z,0.20
2017-09-13T11:18:13.476Z,0.20
2017-09-13T11:20:39.900Z,0.30
2017-09-13T11:23:06.247Z,0.20
2017-09-13T11:25:32.646Z,0.20
2017-09-13T11:27:59.028Z,0.20
2017-09-13T11:30:25.418Z,0.30
2017-09-13T11:32:52.557Z,0.20
2017-09-13T11:35:20.279Z,0.20
2017-09-13T11:37:46.856Z,0.20
2017-09-13T11:40:13.372Z,0.20
2017-09-13T11:42:39.753Z,0.20
2017-09-13T11:45:06.136Z,0.20
2017-09-13T11:47:32.628Z,0.20
2017-09-13T11:49:59.066Z,0.20
2017-09-13T11:52:25.643Z,0.20
2017-09-13T11:54:52.108Z,0.30
2017-09-13T11:57:19.373Z,0.20
2017-09-13T11:59:45.830Z,0.20
2017-09-13T12:02:12.198Z,0.20
2017-09-13T12:04:38.777Z,0.20
2017-09-13T12:07:06.009Z,0.20
2017-09-13T12:09:33.125Z,0.30
2017-09-13T12:11:59.607Z,0.20
2017-09-13T12:14:25.985Z,0.47
2017-09-13T12:16:52.330Z,0.50
2017-09-13T12:19:18.911Z,0.40
2017-09-13T12:21:45.412Z,0.30
2017-09-13T12:24:11.880Z,0.30
2017-09-13T12:26:38.454Z,0.20
2017-09-13T12:29:04.820Z,0.30
2017-09-13T12:31:31.240Z,0.50
2017-09-13T12:33:57.604Z,0.40
2017-09-13T12:36:24.021Z,0.40
2017-09-13T12:38:50.365Z,1.23
2017-09-13T12:41:17.617Z,0.43
2017-09-13T12:43:44.748Z,0.47
2017-09-13T12:46:11.224Z,0.30
2017-09-13T12:48:37.623Z,0.20
2017-09-13T12:51:04.064Z,0.30
2017-09-13T12:53:30.503Z,0.20
2017-09-13T12:55:57.801Z,0.20
2017-09-13T12:58:24.184Z,0.30
2017-09-13T13:00:50.632Z,0.37
2017-09-13T13:03:17.750Z,0.70
2017-09-13T13:05:44.169Z,0.30
2017-09-13T13:08:10.577Z,0.20
2017-09-13T13:10:36.891Z,0.30
2017-09-13T13:13:03.381Z,0.20
2017-09-13T13:15:29.788Z,0.20
2017-09-13T13:17:56.235Z,0.30
2017-09-13T13:20:23.236Z,0.40
2017-09-13T13:22:50.323Z,0.43
2017-09-13T13:25:16.801Z,0.30
2017-09-13T13:27:43.400Z,0.40
2017-09-13T13:30:09.875Z,0.40
2017-09-13T13:32:36.220Z,0.83
2017-09-13T13:35:03.374Z,0.50
2017-09-13T13:37:31.360Z,0.50
2017-09-13T13:39:58.044Z,0.73
2017-09-13T13:42:24.425Z,0.80
2017-09-13T13:44:50.889Z,1.00
2017-09-13T13:47:17.588Z,1.67
2017-09-13T13:49:44.737Z,1.07
2017-09-13T13:52:11.747Z,0.90
2017-09-13T13:54:38.193Z,0.90
2017-09-13T13:57:04.680Z,1.00
2017-09-13T13:59:31.233Z,0.80
2017-09-13T14:01:57.759Z,1.00
2017-09-13T14:04:24.247Z,1.20
2017-09-13T14:06:50.807Z,1.70
2017-09-13T14:09:17.971Z,0.90
2017-09-13T14:11:44.310Z,1.20
2017-09-13T14:14:10.709Z,1.40
2017-09-13T14:16:37.833Z,1.00
2017-09-13T14:19:04.565Z,1.30
2017-09-13T14:21:30.951Z,1.70
2017-09-13T14:23:57.450Z,2.20
2017-09-13T14:26:23.860Z,3.00
2017-09-13T14:28:50.385Z,1.47
2017-09-13T14:31:16.770Z,1.50
2017-09-13T14:33:43.191Z,1.53
2017-09-13T14:36:09.686Z,2.03
2017-09-13T14:38:36.175Z,2.47
2017-09-13T14:41:03.285Z,1.90
2017-09-13T14:43:29.681Z,2.10
2017-09-13T14:45:56.112Z,2.03
2017-09-13T14:48:22.542Z,2.40
2017-09-13T14:50:48.842Z,2.20
2017-09-13T14:53:15.185Z,2.10
2017-09-13T14:55:41.544Z,2.03
2017-09-13T14:58:07.949Z,1.80
2017-09-13T15:00:35.217Z,2.27
2017-09-13T15:03:02.367Z,2.40
2017-09-13T15:05:29.657Z,2.60
2017-09-13T15:07:56.691Z,2.17
2017-09-13T15:10:23.667Z,2.30
2017-09-13T15:12:50.056Z,1.83
2017-09-13T15:15:16.546Z,1.40
2017-09-13T15:17:43.809Z,1.60
2017-09-13T15:20:11.624Z,2.03
2017-09-13T15:22:38.897Z,1.70
2017-09-13T15:25:06.346Z,1.70
2017-09-13T15:27:32.795Z,1.93
2017-09-13T15:29:59.153Z,2.27
2017-09-13T15:32:25.679Z,2.67
2017-09-13T15:34:52.128Z,2.13
2017-09-13T15:37:18.630Z,2.50
2017-09-13T15:39:45.074Z,2.77
2017-09-13T15:42:11.558Z,2.23
2017-09-13T15:44:38.738Z,2.23
2017-09-13T15:47:05.094Z,2.10
2017-09-13T15:49:31.605Z,3.60
2017-09-13T15:51:58.101Z,1.93
2017-09-13T15:54:25.392Z,3.70
2017-09-13T15:56:51.878Z,3.07
2017-09-13T15:59:18.366Z,2.97
2017-09-13T16:01:44.746Z,2.60
2017-09-13T16:04:11.250Z,2.90
2017-09-13T16:06:37.657Z,3.30
2017-09-13T16:09:04.285Z,2.67
2017-09-13T16:11:30.659Z,2.77
2017-09-13T16:13:57.165Z,2.47
2017-09-13T16:16:23.581Z,2.90
2017-09-13T16:18:50.028Z,2.40
2017-09-13T16:21:16.454Z,4.10
2017-09-13T16:23:43.720Z,2.20
2017-09-13T16:26:10.201Z,3.17
2017-09-13T16:28:36.626Z,2.67
2017-09-13T16:31:03.203Z,2.80
2017-09-13T16:33:30.458Z,2.30
2017-09-13T16:35:57.111Z,2.70
2017-09-13T16:38:23.582Z,2.70
2017-09-13T16:40:50.082Z,2.40
2017-09-13T16:43:16.613Z,2.60
2017-09-13T16:45:43.058Z,2.47
2017-09-13T16:48:09.430Z,1.70
2017-09-13T16:50:35.803Z,2.20
2017-09-13T16:53:02.224Z,1.70
2017-09-13T16:55:28.678Z,2.23
2017-09-13T16:57:55.102Z,3.67
2017-09-13T17:00:22.235Z,5.50
2017-09-13T17:02:49.524Z,2.97
2017-09-13T17:05:16.060Z,2.43
2017-09-13T17:07:43.048Z,3.37
2017-09-13T17:10:09.523Z,3.20
2017-09-13T17:12:35.867Z,3.40
2017-09-13T17:15:02.253Z,2.63
2017-09-13T17:17:28.601Z,4.50
2017-09-13T17:19:54.956Z,3.73
2017-09-13T17:22:21.436Z,2.20
2017-09-13T17:24:48.257Z,4.13
2017-09-13T17:27:14.708Z,2.20
2017-09-13T17:29:41.900Z,3.20
2017-09-13T17:32:08.715Z,1.93
2017-09-13T17:34:35.180Z,1.73
2017-09-13T17:37:01.753Z,2.03
2017-09-13T17:39:28.301Z,1.80
2017-09-13T17:41:54.813Z,1.83
2017-09-13T17:44:21.290Z,1.53
2017-09-13T17:46:47.819Z,1.80
2017-09-13T17:49:15.230Z,1.70
2017-09-13T17:51:42.379Z,1.57
2017-09-13T17:54:09.703Z,1.20
2017-09-13T17:56:36.133Z,1.40
2017-09-13T17:59:02.672Z,1.23
2017-09-13T18:01:29.091Z,1.17
2017-09-13T18:03:55.720Z,1.20
2017-09-13T18:06:22.244Z,1.30
2017-09-13T18:08:48.683Z,1.33
2017-09-13T18:11:15.079Z,1.10
2017-09-13T18:13:41.392Z,1.57
2017-09-13T18:16:08.719Z,1.30
2017-09-13T18:18:35.133Z,1.40
2017-09-13T18:21:01.584Z,0.97
2017-09-13T18:23:28.021Z,1.20
2017-09-13T18:25:55.142Z,1.93
2017-09-13T18:28:21.875Z,1.63
2017-09-13T18:30:48.278Z,1.93
2017-09-13T18:33:15.375Z,2.00
2017-09-13T18:35:42.286Z,1.20
2017-09-13T18:38:09.024Z,1.40
2017-09-13T18:40:36.143Z,1.83
2017-09-13T18:43:02.900Z,1.67
2017-09-13T18:45:30.734Z,2.03
2017-09-13T18:47:57.115Z,2.17
2017-09-13T18:50:24.165Z,1.77
2017-09-13T18:52:50.610Z,2.27
2017-09-13T18:55:17.002Z,1.57
2017-09-13T18:57:43.520Z,1.93
2017-09-13T19:00:10.071Z,2.27
2017-09-13T19:02:36.680Z,1.97
2017-09-13T19:05:03.131Z,2.10
2017-09-13T19:07:29.656Z,2.73
2017-09-13T19:09:56.125Z,2.27
2017-09-13T19:12:22.507Z,1.60
2017-09-13T19:14:48.979Z,1.67
2017-09-13T19:17:15.515Z,1.77
2017-09-13T19:19:41.919Z,2.07
2017-09-13T19:22:08.288Z,2.10
2017-09-13T19:24:34.808Z,2.10
2017-09-13T19:27:01.264Z,1.67
2017-09-13T19:29:27.790Z,2.40
2017-09-13T19:31:54.397Z,1.30
2017-09-13T19:34:20.865Z,2.10
2017-09-13T19:36:47.447Z,1.90
2017-09-13T19:39:13.950Z,2.00
2017-09-13T19:41:41.144Z,1.47
2017-09-13T19:44:07.603Z,2.00
2017-09-13T19:46:34.099Z,1.77
2017-09-13T19:49:00.601Z,1.33
2017-09-13T19:51:27.750Z,1.77
2017-09-13T19:53:54.256Z,1.70
2017-09-13T19:56:20.688Z,1.70
2017-09-13T19:58:47.162Z,1.40
2017-09-13T20:01:13.651Z,1.53
2017-09-13T20:03:40.104Z,1.80
2017-09-13T20:06:06.561Z,1.47
2017-09-13T20:08:32.920Z,1.80
2017-09-13T20:10:59.387Z,1.50
2017-09-13T20:13:25.833Z,1.63
2017-09-13T20:15:52.228Z,2.23
2017-09-13T20:18:20.461Z,1.53
2017-09-13T20:20:46.841Z,1.50
2017-09-13T20:23:13.198Z,2.10
2017-09-13T20:25:39.627Z,1.97
2017-09-13T20:28:06.068Z,1.43
2017-09-13T20:30:32.551Z,2.00
2017-09-13T20:32:59.036Z,1.73
2017-09-13T20:35:25.620Z,1.60
2017-09-13T20:37:52.086Z,2.10
2017-09-13T20:40:18.462Z,2.03
2017-09-13T20:42:44.872Z,2.30
2017-09-13T20:45:11.319Z,1.83
2017-09-13T20:47:37.846Z,1.43
2017-09-13T20:50:04.291Z,2.10
2017-09-13T20:52:30.810Z,2.00
2017-09-13T20:54:57.208Z,1.90
2017-09-13T20:57:23.711Z,1.53
2017-09-13T20:59:50.128Z,1.90
2017-09-13T21:02:16.528Z,1.97
2017-09-13T21:04:42.897Z,1.50
2017-09-13T21:07:09.159Z,2.20
2017-09-13T21:09:35.637Z,2.20
2017-09-13T21:12:02.019Z,2.97
2017-09-13T21:14:29.161Z,2.60
2017-09-13T21:16:55.601Z,1.80
2017-09-13T21:19:23.540Z,1.57
2017-09-13T21:21:49.993Z,1.27
2017-09-13T21:24:16.535Z,1.50
2017-09-13T21:26:43.039Z,1.53
2017-09-13T21:29:09.446Z,2.10
2017-09-13T21:31:35.809Z,1.53
2017-09-13T21:34:02.217Z,1.90
2017-09-13T21:36:28.793Z,1.90
2017-09-13T21:38:55.216Z,2.30
2017-09-13T21:41:21.604Z,2.33
2017-09-13T21:43:48.067Z,1.80
2017-09-13T21:46:14.425Z,1.80
2017-09-13T21:48:40.870Z,1.40
2017-09-13T21:51:08.080Z,1.80
2017-09-13T21:53:34.469Z,2.00
2017-09-13T21:56:01.002Z,1.90
2017-09-13T21:58:27.471Z,1.70
2017-09-13T22:00:53.787Z,1.37
2017-09-13T22:03:20.191Z,1.70
2017-09-13T22:05:47.340Z,1.73
2017-09-13T22:08:13.808Z,1.80
2017-09-13T22:10:40.863Z,1.30
2017-09-13T22:13:07.310Z,1.10
2017-09-13T22:15:33.823Z,1.40
2017-09-13T22:18:00.304Z,1.50
2017-09-13T22:20:26.694Z,1.90
2017-09-13T22:22:53.063Z,1.60
2017-09-13T22:25:19.526Z,1.30
2017-09-13T22:27:46.078Z,1.17
2017-09-13T22:30:13.174Z,1.07
2017-09-13T22:32:39.621Z,1.20
2017-09-13T22:35:06.043Z,0.87
2017-09-13T22:37:32.511Z,1.00
2017-09-13T22:39:58.981Z,0.77
2017-09-13T22:42:25.324Z,1.37
2017-09-13T22:44:51.755Z,0.77
2017-09-13T22:47:18.127Z,0.90
2017-09-13T22:49:44.546Z,0.67
2017-09-13T22:52:10.986Z,0.93
2017-09-13T22:54:37.439Z,0.70
2017-09-13T22:57:03.877Z,0.90
2017-09-13T22:59:30.982Z,0.60
2017-09-13T23:01:57.366Z,0.80
2017-09-13T23:04:23.775Z,0.83
2017-09-13T23:06:50.235Z,0.77
2017-09-13T23:09:16.609Z,0.70
2017-09-13T23:11:43.045Z,0.60
2017-09-13T23:14:09.502Z,0.60
2017-09-13T23:16:35.808Z,0.50
2017-09-13T23:19:02.300Z,0.70
2017-09-13T23:21:28.583Z,0.80
2017-09-13T23:23:55.014Z,0.57
2017-09-13T23:26:21.452Z,0.67
2017-09-13T23:28:47.899Z,0.60
2017-09-13T23:31:14.200Z,0.40
2017-09-13T23:33:40.673Z,0.53
2017-09-13T23:36:07.039Z,0.50
2017-09-13T23:38:33.469Z,0.50
2017-09-13T23:40:59.754Z,0.70
2017-09-13T23:43:26.115Z,0.40
2017-09-13T23:45:52.538Z,0.50
2017-09-13T23:48:18.904Z,0.57
2017-09-13T23:50:45.257Z,0.57
2017-09-13T23:53:12.505Z,0.63
2017-09-13T23:55:39.716Z,0.70
2017-09-13T23:58:06.074Z,0.70
